createdAt,value
2023-09-22T00:00:20.070Z,1.00
2023-09-22T00:02:48.387Z,1.00
2023-09-22T00:05:16.222Z,1.00
2023-09-22T00:07:44.481Z,1.00
2023-09-22T00:10:14.351Z,1.00
2023-09-22T00:12:42.944Z,1.00
2023-09-22T00:15:11.449Z,1.00
2023-09-22T00:17:39.261Z,1.00
2023-09-22T00:20:09.848Z,1.00
2023-09-22T00:22:37.632Z,1.00
2023-09-22T00:25:05.488Z,1.00
2023-09-22T00:27:33.050Z,1.00
2023-09-22T00:30:00.439Z,1.00
2023-09-22T00:32:27.858Z,1.00
2023-09-22T00:34:55.222Z,1.00
2023-09-22T00:37:23.845Z,1.00
2023-09-22T00:39:51.382Z,1.00
2023-09-22T00:42:18.825Z,1.00
2023-09-22T00:44:46.322Z,1.00
2023-09-22T00:47:17.052Z,1.00
2023-09-22T00:49:47.214Z,1.00
2023-09-22T00:52:15.310Z,1.00
2023-09-22T00:54:43.105Z,1.00
2023-09-22T00:57:10.857Z,1.00
2023-09-22T00:59:38.909Z,1.00
2023-09-22T01:02:06.296Z,1.00
2023-09-22T01:04:35.470Z,1.00
2023-09-22T01:07:02.880Z,1.00
2023-09-22T01:09:30.214Z,1.00
2023-09-22T01:11:57.730Z,1.00
2023-09-22T01:14:25.072Z,1.00
2023-09-22T01:16:52.897Z,1.00
2023-09-22T01:19:20.724Z,1.00
2023-09-22T01:21:49.650Z,1.00
2023-09-22T01:24:17.320Z,1.00
2023-09-22T01:26:44.678Z,1.00
2023-09-22T01:29:12.554Z,1.00
2023-09-22T01:31:40.122Z,1.00
2023-09-22T01:34:09.719Z,1.00
2023-09-22T01:36:37.195Z,1.00
2023-09-22T01:39:06.505Z,1.00
2023-09-22T01:41:36.878Z,1.00
2023-09-22T01:44:04.527Z,1.00
2023-09-22T01:46:32.321Z,1.00
2023-09-22T01:49:00.202Z,1.00
2023-09-22T01:51:27.700Z,1.00
2023-09-22T01:53:56.663Z,1.00
2023-09-22T01:56:24.059Z,1.00
2023-09-22T01:58:51.397Z,1.00
2023-09-22T02:01:19.152Z,1.00
2023-09-22T02:03:47.366Z,1.00
2023-09-22T02:06:15.213Z,1.00
2023-09-22T02:08:42.867Z,1.00
2023-09-22T02:11:13.433Z,1.00
2023-09-22T02:13:41.755Z,1.00
2023-09-22T02:16:09.223Z,1.00
2023-09-22T02:18:37.101Z,1.00
2023-09-22T02:21:07.440Z,1.00
2023-09-22T02:23:35.220Z,1.00
2023-09-22T02:26:09.110Z,1.00
2023-09-22T02:28:36.929Z,1.00
2023-09-22T02:31:04.679Z,1.00
2023-09-22T02:33:32.138Z,1.00
2023-09-22T02:36:00.622Z,1.00
2023-09-22T02:38:28.217Z,1.00
2023-09-22T02:40:55.548Z,1.00
2023-09-22T02:43:23.022Z,1.00
2023-09-22T02:45:54.799Z,22.30
2023-09-22T02:48:22.286Z,1.00
2023-09-22T02:50:49.620Z,23.40
2023-09-22T02:53:16.987Z,1.00
2023-09-22T02:55:44.372Z,1.00
2023-09-22T02:58:11.634Z,33.10
2023-09-22T03:00:44.322Z,1.00
2023-09-22T03:03:15.871Z,1.00
2023-09-22T03:05:43.567Z,1.00
2023-09-22T03:08:10.825Z,1.00
2023-09-22T03:10:40.025Z,1.00
2023-09-22T03:13:07.310Z,39.60
2023-09-22T03:15:38.107Z,1.00
2023-09-22T03:18:06.119Z,1.00
2023-09-22T03:20:33.428Z,1.00
2023-09-22T03:23:00.740Z,4.90
2023-09-22T03:25:28.159Z,8.60
2023-09-22T03:27:55.661Z,10.90
2023-09-22T03:30:23.119Z,1.00
2023-09-22T03:32:54.556Z,1.00
2023-09-22T03:35:22.696Z,1.00
2023-09-22T03:37:50.473Z,1.00
2023-09-22T03:40:24.320Z,1.00
2023-09-22T03:42:51.852Z,1.00
2023-09-22T03:45:20.257Z,1.00
2023-09-22T03:47:48.195Z,1.00
2023-09-22T03:50:15.906Z,1.00
2023-09-22T03:52:43.730Z,1.00
2023-09-22T03:55:13.485Z,28.70
2023-09-22T03:57:41.273Z,44.90
2023-09-22T04:00:18.872Z,36.30
2023-09-22T04:02:47.586Z,33.50
2023-09-22T04:05:15.257Z,45.90
2023-09-22T04:07:42.614Z,30.40
2023-09-22T04:10:10.946Z,72.20
2023-09-22T04:12:38.269Z,24.10
2023-09-22T04:15:07.198Z,50.70
2023-09-22T04:17:34.647Z,41.10
2023-09-22T04:20:08.614Z,99.90
2023-09-22T04:22:36.589Z,39.60
2023-09-22T04:25:11.500Z,44.30
2023-09-22T04:27:47.563Z,92.50
2023-09-22T04:30:18.273Z,99.90
2023-09-22T04:32:45.957Z,99.90
2023-09-22T04:35:13.673Z,99.90
2023-09-22T04:37:41.912Z,99.90
2023-09-22T04:40:24.728Z,74.00
2023-09-22T04:42:53.003Z,53.70
2023-09-22T04:45:22.711Z,28.00
2023-09-22T04:47:53.615Z,13.60
2023-09-22T04:50:22.560Z,39.00
2023-09-22T04:52:51.642Z,53.40
2023-09-22T04:55:20.413Z,36.70
2023-09-22T04:57:48.564Z,99.90
2023-09-22T05:00:22.727Z,13.80
2023-09-22T05:02:51.098Z,73.30
2023-09-22T05:05:20.232Z,37.40
2023-09-22T05:07:48.638Z,75.60
2023-09-22T05:10:16.105Z,54.50
2023-09-22T05:12:43.383Z,99.90
2023-09-22T05:15:11.184Z,9.30
2023-09-22T05:17:38.736Z,11.30
2023-09-22T05:20:13.712Z,40.70
2023-09-22T05:22:42.345Z,74.30
2023-09-22T05:25:11.459Z,99.90
2023-09-22T05:27:38.849Z,99.90
2023-09-22T05:30:08.194Z,86.60
2023-09-22T05:32:35.890Z,12.70
2023-09-22T05:35:04.140Z,1.00
2023-09-22T05:37:32.578Z,1.00
2023-09-22T05:40:00.747Z,1.00
2023-09-22T05:42:29.500Z,1.00
2023-09-22T05:44:56.859Z,1.00
2023-09-22T05:47:24.442Z,1.00
2023-09-22T05:49:51.666Z,1.00
2023-09-22T05:52:20.169Z,1.00
2023-09-22T05:54:49.093Z,1.00
2023-09-22T05:57:16.431Z,1.00
2023-09-22T05:59:44.990Z,1.00
2023-09-22T06:02:12.384Z,1.00
2023-09-22T06:04:39.749Z,1.00
2023-09-22T06:07:13.783Z,1.00
2023-09-22T06:09:41.509Z,1.00
2023-09-22T06:12:08.977Z,1.00
2023-09-22T06:14:36.335Z,1.00
2023-09-22T06:17:03.682Z,1.00
2023-09-22T06:19:31.022Z,1.00
2023-09-22T06:21:59.140Z,1.00
2023-09-22T06:24:26.641Z,1.00
2023-09-22T06:26:54.002Z,1.00
2023-09-22T06:29:21.327Z,1.00
2023-09-22T06:31:49.172Z,1.00
2023-09-22T06:34:16.506Z,1.00
2023-09-22T06:36:43.829Z,1.00
2023-09-22T06:39:11.173Z,1.00
2023-09-22T06:41:38.675Z,1.00
2023-09-22T06:44:07.773Z,1.00
2023-09-22T06:46:37.303Z,1.00
2023-09-22T06:49:06.601Z,1.00
2023-09-22T06:51:34.961Z,1.00
2023-09-22T06:54:02.274Z,1.00
2023-09-22T06:56:43.208Z,1.00
2023-09-22T06:59:16.472Z,1.00
2023-09-22T07:01:43.842Z,1.00
2023-09-22T07:04:12.300Z,1.00
2023-09-22T07:06:40.779Z,1.00
2023-09-22T07:09:11.215Z,1.00
2023-09-22T07:11:42.100Z,1.00
2023-09-22T07:14:10.040Z,1.00
2023-09-22T07:16:38.213Z,1.00
2023-09-22T07:19:06.051Z,1.00
2023-09-22T07:21:33.461Z,1.00
2023-09-22T07:24:00.862Z,1.00
2023-09-22T07:26:28.432Z,1.00
2023-09-22T07:28:55.747Z,1.00
2023-09-22T07:31:23.108Z,1.00
2023-09-22T07:33:50.540Z,1.00
2023-09-22T07:36:17.938Z,1.00
2023-09-22T07:38:46.298Z,1.00
2023-09-22T07:41:13.981Z,1.00
2023-09-22T07:43:41.464Z,1.00
2023-09-22T07:46:09.442Z,1.00
2023-09-22T07:48:38.125Z,1.00
2023-09-22T07:51:06.419Z,1.00
2023-09-22T07:53:34.467Z,1.00
2023-09-22T07:56:01.822Z,1.00
2023-09-22T07:58:30.527Z,1.00
2023-09-22T08:01:00.617Z,1.00
2023-09-22T08:03:28.746Z,1.00
2023-09-22T08:05:56.312Z,1.00
2023-09-22T08:08:26.024Z,1.00
2023-09-22T08:10:54.962Z,1.00
2023-09-22T08:13:23.093Z,1.00
2023-09-22T08:15:50.781Z,1.00
2023-09-22T08:18:18.270Z,1.00
2023-09-22T08:20:45.652Z,1.00
2023-09-22T08:23:13.029Z,1.00
2023-09-22T08:25:40.809Z,1.00
2023-09-22T08:28:08.201Z,1.00
2023-09-22T08:30:35.515Z,1.00
2023-09-22T08:33:03.870Z,1.00
2023-09-22T08:35:31.446Z,1.00
2023-09-22T08:37:58.681Z,1.00
2023-09-22T08:40:26.030Z,1.00
2023-09-22T08:42:57.047Z,1.00
2023-09-22T08:45:24.502Z,1.00
2023-09-22T08:47:53.222Z,1.00
2023-09-22T08:50:21.202Z,1.00
2023-09-22T08:52:53.557Z,1.00
2023-09-22T08:55:22.849Z,1.00
2023-09-22T08:57:52.439Z,1.00
2023-09-22T09:00:27.894Z,1.00
2023-09-22T09:03:06.667Z,1.00
2023-09-22T09:05:34.627Z,1.00
2023-09-22T09:08:19.773Z,1.00
2023-09-22T09:10:49.639Z,1.00
2023-09-22T09:13:21.851Z,1.00
2023-09-22T09:15:56.752Z,1.00
2023-09-22T09:18:26.075Z,1.00
2023-09-22T09:21:28.760Z,1.00
2023-09-22T09:23:57.712Z,1.00
2023-09-22T09:26:26.154Z,1.00
2023-09-22T09:28:54.552Z,1.00
2023-09-22T09:31:44.796Z,1.00
2023-09-22T09:34:12.319Z,1.00
2023-09-22T09:36:39.900Z,1.00
2023-09-22T09:39:07.648Z,1.00
2023-09-22T09:41:38.909Z,1.00
2023-09-22T09:44:06.978Z,1.00
2023-09-22T09:46:37.462Z,1.00
2023-09-22T09:49:07.796Z,1.00
2023-09-22T09:51:41.412Z,1.00
2023-09-22T09:54:09.725Z,1.00
2023-09-22T09:56:42.883Z,1.00
2023-09-22T09:59:11.747Z,1.00
2023-09-22T10:01:40.484Z,1.00
2023-09-22T10:04:09.355Z,1.00
2023-09-22T10:06:46.181Z,1.00
2023-09-22T10:09:19.263Z,1.00
2023-09-22T10:11:47.024Z,1.00
2023-09-22T10:14:52.544Z,1.00
2023-09-22T10:17:24.395Z,1.00
2023-09-22T10:19:52.248Z,1.00
2023-09-22T10:22:19.752Z,1.00
2023-09-22T10:24:56.553Z,1.00
2023-09-22T10:27:29.526Z,1.00
2023-09-22T10:29:57.012Z,1.00
2023-09-22T10:32:28.270Z,1.00
2023-09-22T10:35:10.455Z,1.00
2023-09-22T10:37:38.751Z,1.00
2023-09-22T10:40:12.898Z,1.00
2023-09-22T10:42:47.481Z,1.00
2023-09-22T10:45:18.979Z,1.00
2023-09-22T10:47:47.984Z,1.00
2023-09-22T10:50:31.302Z,1.00
2023-09-22T10:53:04.469Z,1.00
2023-09-22T10:55:36.475Z,1.00
2023-09-22T10:58:07.561Z,1.00
2023-09-22T11:00:46.978Z,1.00
2023-09-22T11:03:15.807Z,1.00
2023-09-22T11:05:45.619Z,1.00
2023-09-22T11:08:19.334Z,1.00
2023-09-22T11:10:51.339Z,1.00
2023-09-22T11:13:19.816Z,1.00
2023-09-22T11:15:52.468Z,1.00
2023-09-22T11:18:28.346Z,1.00
2023-09-22T11:21:14.084Z,1.00
2023-09-22T11:23:42.318Z,1.00
2023-09-22T11:26:14.267Z,1.00
2023-09-22T11:28:42.794Z,1.00
2023-09-22T11:31:18.600Z,1.00
2023-09-22T11:33:47.666Z,1.00
2023-09-22T11:36:15.779Z,1.00
2023-09-22T11:38:53.502Z,1.00
2023-09-22T11:41:23.128Z,1.00
2023-09-22T11:43:53.170Z,1.00
2023-09-22T11:46:23.991Z,1.00
2023-09-22T11:49:09.161Z,1.00
2023-09-22T11:52:00.755Z,1.00
2023-09-22T11:54:30.936Z,1.00
2023-09-22T11:57:00.384Z,1.00
2023-09-22T11:59:31.304Z,1.00
2023-09-22T12:01:59.070Z,1.00
2023-09-22T12:04:28.116Z,1.00
2023-09-22T12:06:56.051Z,1.00
2023-09-22T12:09:23.335Z,1.00
2023-09-22T12:11:50.721Z,1.00
2023-09-22T12:14:18.523Z,1.00
2023-09-22T12:16:47.018Z,1.00
2023-09-22T12:19:15.463Z,1.00
2023-09-22T12:21:43.013Z,1.00
2023-09-22T12:24:10.313Z,1.00
2023-09-22T12:26:37.689Z,1.00
2023-09-22T12:29:05.149Z,1.00
2023-09-22T12:31:32.932Z,1.00
2023-09-22T12:34:01.668Z,1.00
2023-09-22T12:36:28.974Z,1.00
2023-09-22T12:38:56.301Z,1.00
2023-09-22T12:41:23.690Z,1.00
2023-09-22T12:43:51.198Z,1.00
2023-09-22T12:46:18.735Z,1.00
2023-09-22T12:48:46.147Z,1.00
2023-09-22T12:51:13.423Z,1.00
2023-09-22T12:53:41.732Z,1.00
2023-09-22T12:56:09.410Z,1.00
2023-09-22T12:58:36.938Z,1.00
2023-09-22T13:01:06.434Z,1.00
2023-09-22T13:03:35.872Z,1.00
2023-09-22T13:06:05.244Z,1.00
2023-09-22T13:08:35.974Z,1.00
2023-09-22T13:11:04.367Z,1.00
2023-09-22T13:13:32.435Z,1.00
2023-09-22T13:16:00.633Z,1.00
2023-09-22T13:18:28.514Z,1.00
2023-09-22T13:20:56.240Z,1.00
2023-09-22T13:23:23.889Z,1.00
2023-09-22T13:25:52.116Z,1.00
2023-09-22T13:28:19.897Z,1.00
2023-09-22T13:30:54.984Z,1.00
2023-09-22T13:33:23.595Z,1.00
2023-09-22T13:35:52.097Z,1.00
2023-09-22T13:38:20.479Z,1.00
2023-09-22T13:40:48.725Z,1.00
2023-09-22T13:43:17.063Z,1.00
2023-09-22T13:45:44.495Z,1.00
2023-09-22T13:48:12.344Z,1.00
2023-09-22T13:50:40.239Z,1.00
2023-09-22T13:53:09.655Z,1.00
2023-09-22T13:55:39.787Z,1.00
2023-09-22T13:58:08.080Z,1.00
2023-09-22T14:00:35.795Z,1.00
2023-09-22T14:03:04.004Z,1.00
2023-09-22T14:05:33.492Z,1.00
2023-09-22T14:08:01.069Z,1.00
2023-09-22T14:10:29.268Z,1.00
2023-09-22T14:12:57.480Z,1.00
2023-09-22T14:15:24.849Z,1.00
2023-09-22T14:17:52.969Z,1.00
2023-09-22T14:20:23.695Z,1.00
2023-09-22T14:22:55.271Z,1.00
2023-09-22T14:25:24.372Z,1.00
2023-09-22T14:27:53.042Z,1.00
2023-09-22T14:30:20.693Z,1.00
2023-09-22T14:32:48.608Z,1.00
2023-09-22T14:35:16.025Z,1.00
2023-09-22T14:37:43.342Z,1.00
2023-09-22T14:40:12.064Z,1.00
2023-09-22T14:42:39.392Z,1.00
2023-09-22T14:45:07.414Z,1.00
2023-09-22T14:47:35.616Z,1.00
2023-09-22T14:50:03.319Z,1.00
2023-09-22T14:52:30.866Z,1.00
2023-09-22T14:54:58.790Z,1.00
2023-09-22T14:57:26.239Z,1.00
2023-09-22T14:59:54.035Z,1.00
2023-09-22T15:02:22.257Z,1.00
2023-09-22T15:04:49.843Z,1.00
2023-09-22T15:07:17.240Z,1.00
2023-09-22T15:09:46.845Z,1.00
2023-09-22T15:12:14.575Z,1.00
2023-09-22T15:14:42.088Z,1.00
2023-09-22T15:17:10.630Z,1.00
2023-09-22T15:19:40.643Z,1.00
2023-09-22T15:22:08.273Z,1.00
2023-09-22T15:24:36.577Z,1.00
2023-09-22T15:27:03.912Z,1.00
2023-09-22T15:29:31.405Z,1.00
2023-09-22T15:31:59.135Z,1.00
2023-09-22T15:34:26.953Z,1.00
2023-09-22T15:36:54.158Z,1.00
2023-09-22T15:39:21.621Z,1.00
2023-09-22T15:41:48.891Z,1.00
2023-09-22T15:44:17.665Z,1.00
2023-09-22T15:46:45.306Z,1.00
2023-09-22T15:49:13.276Z,1.00
2023-09-22T15:51:40.503Z,1.00
2023-09-22T15:54:07.782Z,1.00
2023-09-22T15:56:35.004Z,1.00
2023-09-22T15:59:02.308Z,1.00
2023-09-22T16:01:29.910Z,1.00
2023-09-22T16:03:57.284Z,1.00
2023-09-22T16:06:24.921Z,1.00
2023-09-22T16:08:52.155Z,1.00
2023-09-22T16:11:19.436Z,1.00
2023-09-22T16:13:49.896Z,1.00
2023-09-22T16:16:17.382Z,1.00
2023-09-22T16:18:44.899Z,1.00
2023-09-22T16:21:12.868Z,1.00
2023-09-22T16:23:41.309Z,1.00
2023-09-22T16:26:10.283Z,1.00
2023-09-22T16:28:38.759Z,1.00
2023-09-22T16:31:07.470Z,1.00
2023-09-22T16:33:36.256Z,1.00
2023-09-22T16:36:04.892Z,1.00
2023-09-22T16:38:33.799Z,1.00
2023-09-22T16:41:01.410Z,1.00
2023-09-22T16:43:28.907Z,1.00
2023-09-22T16:45:58.536Z,1.00
2023-09-22T16:48:27.019Z,1.00
2023-09-22T16:50:55.115Z,1.00
2023-09-22T16:53:22.877Z,1.00
2023-09-22T16:55:50.972Z,1.00
2023-09-22T16:58:18.413Z,1.00
2023-09-22T17:00:48.052Z,1.00
2023-09-22T17:03:16.090Z,1.00
2023-09-22T17:05:43.683Z,1.00
2023-09-22T17:08:12.052Z,1.00
2023-09-22T17:10:42.346Z,1.00
2023-09-22T17:13:10.358Z,1.00
2023-09-22T17:15:43.946Z,1.00
2023-09-22T17:18:14.477Z,1.00
2023-09-22T17:20:42.644Z,1.00
2023-09-22T17:23:10.250Z,1.00
2023-09-22T17:25:37.802Z,1.00
2023-09-22T17:28:05.949Z,1.00
2023-09-22T17:30:33.233Z,1.00
2023-09-22T17:33:00.929Z,1.00
2023-09-22T17:35:28.719Z,1.00
2023-09-22T17:37:56.044Z,1.00
2023-09-22T17:40:23.356Z,1.00
2023-09-22T17:42:51.488Z,1.00
2023-09-22T17:45:18.954Z,1.00
2023-09-22T17:47:46.966Z,1.00
2023-09-22T17:50:14.477Z,1.00
2023-09-22T17:52:41.885Z,1.00
2023-09-22T17:55:10.559Z,1.00
2023-09-22T17:57:37.849Z,1.00
2023-09-22T18:00:06.827Z,1.00
2023-09-22T18:02:34.514Z,1.00
2023-09-22T18:05:02.056Z,1.00
2023-09-22T18:07:29.441Z,1.00
2023-09-22T18:09:56.775Z,1.00
2023-09-22T18:12:24.168Z,1.00
2023-09-22T18:14:52.388Z,1.00
2023-09-22T18:17:21.457Z,1.00
2023-09-22T18:19:49.879Z,1.00
2023-09-22T18:22:17.376Z,1.00
2023-09-22T18:24:44.679Z,1.00
2023-09-22T18:27:11.916Z,1.00
2023-09-22T18:29:41.540Z,1.00
2023-09-22T18:32:08.894Z,1.00
2023-09-22T18:34:36.443Z,1.00
2023-09-22T18:37:03.718Z,1.00
2023-09-22T18:39:31.084Z,1.00
2023-09-22T18:41:58.688Z,1.00
2023-09-22T18:44:25.992Z,1.00
2023-09-22T18:46:54.844Z,1.00
2023-09-22T18:49:24.100Z,1.00
2023-09-22T18:51:51.364Z,1.00
2023-09-22T18:54:18.869Z,1.00
2023-09-22T18:56:46.108Z,1.00
2023-09-22T18:59:13.490Z,1.00
2023-09-22T19:01:40.839Z,1.00
2023-09-22T19:04:08.217Z,1.00
2023-09-22T19:06:35.468Z,1.00
2023-09-22T19:09:03.417Z,1.00
2023-09-22T19:11:30.794Z,1.00
2023-09-22T19:13:58.240Z,1.00
2023-09-22T19:16:26.187Z,1.00
2023-09-22T19:18:54.188Z,1.00
2023-09-22T19:21:27.220Z,1.00
2023-09-22T19:23:55.461Z,1.00
2023-09-22T19:26:22.840Z,1.00
2023-09-22T19:28:50.280Z,1.00
2023-09-22T19:31:17.578Z,1.00
2023-09-22T19:33:46.513Z,1.00
2023-09-22T19:36:13.890Z,1.00
2023-09-22T19:38:41.212Z,1.00
2023-09-22T19:41:14.749Z,1.00
2023-09-22T19:43:42.104Z,1.00
2023-09-22T19:46:09.489Z,1.00
2023-09-22T19:48:36.862Z,1.00
2023-09-22T19:51:04.621Z,1.00
2023-09-22T19:53:31.938Z,1.00
2023-09-22T19:55:59.311Z,1.00
2023-09-22T19:58:27.202Z,1.00
2023-09-22T20:00:55.256Z,1.00
2023-09-22T20:03:23.754Z,1.00
2023-09-22T20:05:52.962Z,1.00
2023-09-22T20:08:20.667Z,1.00
2023-09-22T20:10:49.515Z,1.00
2023-09-22T20:13:17.172Z,1.00
2023-09-22T20:15:47.516Z,1.00
2023-09-22T20:18:15.028Z,30.30
2023-09-22T20:20:42.471Z,56.00
2023-09-22T20:23:09.812Z,74.50
2023-09-22T20:25:37.578Z,71.30
2023-09-22T20:28:05.322Z,93.10
2023-09-22T20:30:32.744Z,61.10
2023-09-22T20:33:00.759Z,59.90
2023-09-22T20:35:30.748Z,15.80
2023-09-22T20:37:58.037Z,1.00
2023-09-22T20:40:25.985Z,4.50
2023-09-22T20:42:54.072Z,1.00
2023-09-22T20:45:22.656Z,28.00
2023-09-22T20:47:50.605Z,68.80
2023-09-22T20:50:18.529Z,74.40
2023-09-22T20:52:45.881Z,76.60
2023-09-22T20:55:13.339Z,78.40
2023-09-22T20:57:40.775Z,99.00
2023-09-22T21:00:12.386Z,99.90
2023-09-22T21:02:40.572Z,99.90
2023-09-22T21:05:08.550Z,99.90
2023-09-22T21:07:35.988Z,97.60
2023-09-22T21:10:03.704Z,99.90
2023-09-22T21:12:31.052Z,99.90
2023-09-22T21:14:58.349Z,97.80
2023-09-22T21:17:25.638Z,99.90
2023-09-22T21:19:53.049Z,99.90
2023-09-22T21:22:21.213Z,65.50
2023-09-22T21:24:48.707Z,13.20
2023-09-22T21:27:16.545Z,33.60
2023-09-22T21:29:43.941Z,36.60
2023-09-22T21:32:11.626Z,1.00
2023-09-22T21:34:39.198Z,22.00
2023-09-22T21:37:06.479Z,29.90
2023-09-22T21:39:33.771Z,31.50
2023-09-22T21:42:01.030Z,51.80
2023-09-22T21:44:28.315Z,65.00
2023-09-22T21:46:55.670Z,86.10
2023-09-22T21:49:23.057Z,99.90
2023-09-22T21:51:50.269Z,99.90
2023-09-22T21:54:17.702Z,99.90
2023-09-22T21:56:45.143Z,99.90
2023-09-22T21:59:12.816Z,99.90
2023-09-22T22:01:40.946Z,26.40
2023-09-22T22:04:09.113Z,1.00
2023-09-22T22:06:43.692Z,12.90
2023-09-22T22:09:16.320Z,65.00
2023-09-22T22:11:43.931Z,96.20
2023-09-22T22:14:14.552Z,99.90
2023-09-22T22:16:43.108Z,96.70
2023-09-22T22:19:10.734Z,99.90
2023-09-22T22:21:38.536Z,99.90
2023-09-22T22:24:06.630Z,99.90
2023-09-22T22:26:34.348Z,99.90
2023-09-22T22:29:02.214Z,99.90
2023-09-22T22:31:29.643Z,99.90
2023-09-22T22:34:00.400Z,99.90
2023-09-22T22:36:27.724Z,99.90
2023-09-22T22:38:55.108Z,99.90
2023-09-22T22:41:22.402Z,99.90
2023-09-22T22:43:50.031Z,99.90
2023-09-22T22:46:17.442Z,99.90
2023-09-22T22:48:45.767Z,99.90
2023-09-22T22:51:13.205Z,99.90
2023-09-22T22:53:42.633Z,99.90
2023-09-22T22:56:10.122Z,99.90
2023-09-22T22:58:41.337Z,99.90
2023-09-22T23:01:08.929Z,93.30
2023-09-22T23:03:37.008Z,53.60
2023-09-22T23:06:05.008Z,39.50
2023-09-22T23:08:35.325Z,99.90
2023-09-22T23:11:08.270Z,99.90
2023-09-22T23:13:37.857Z,99.90
2023-09-22T23:16:06.188Z,99.90
2023-09-22T23:18:37.141Z,80.10
2023-09-22T23:21:05.958Z,78.60
2023-09-22T23:23:34.534Z,99.90
2023-09-22T23:26:09.872Z,99.90
2023-09-22T23:28:37.885Z,99.90
2023-09-22T23:31:06.569Z,99.90
2023-09-22T23:33:35.560Z,99.90
2023-09-22T23:36:04.890Z,99.90
2023-09-22T23:38:34.221Z,99.90
2023-09-22T23:41:01.809Z,99.90
2023-09-22T23:43:30.561Z,99.90
2023-09-22T23:45:58.143Z,99.90
2023-09-22T23:48:25.596Z,99.90
2023-09-22T23:50:55.037Z,99.90
2023-09-22T23:53:22.442Z,99.90
2023-09-22T23:55:49.858Z,99.90
2023-09-22T23:58:17.153Z,99.90
